Aérodrome :
LOGIN :

S'inscrire | Disclaimer

   EN    FR    IT 

 










Légende :    VFR   VFR Marginal   IFR   IFR Intensif   IFR Très Intensif
Visi : 
Plafond : 
>= 8 km
>= 3000ft
5 à 8 km
1000 à 3000 ft
1500m à 5 km
500 à 1000 ft
800 à 1500m
200 à 500 ft
< 800m
< 200 ft
Symboles :   Orages  Brouillard  Fortes neiges  Fortes précipitations  Vent > 20 kt
SIGMETs :   Divers  Orages  Givrage  Turbulence  Onde Orograph.  Cendres Volcan.







- Altitude de l'aérodrome : 2697 ft
- Code IATA : BLJ


DABT - Batna

DERNIER METAR :
  • 221800Z 24009KT 9999 SCT026 26/08 Q1020

METARs EXPIRÉS :
  • 221700Z 26011KT 9999 SCT026 29/10 Q1020
  • 221600Z 27011KT 9999 SCT026 30/11 Q1019

TAF TAF DABT
Valide du 22 à 18h jusqu'au 23 à 18h UTC


221700Z 2218/2318 26010KT 9999 SCT026
PROB40
TEMPO 2218/2306 5000 -TSRA FEW023CB BKN030
BECMG 2222/2224 VRB02KT
BECMG 2310/2312 28010KT
Pas de NOTAMs connus pour ce terrain.
2 SIGMETs publiés pour la FIR Alger (DAAA) :
 
Orages noyés dans la masse
DAAA SIGMET 2 VALID 221800/222200 DAMM
DAAA ALGIERS FIR EMBD TS OBS WI N2603 W00211 - N2812 W00449 - N2351 E00603 - N2141 E00051 - N2603 W00211 - TOP FL380 STNR INTSF=
Orages noyés dans la masse
DAAA SIGMET 1 VALID 221800/222200 DAMM
DAAA ALGIERS FIR EMBD TS OBS WI N2603 W00211 - N2812 W00449 - N318 W00340 - N3308 W00000 - N2954 E00103 - N2827 W00154 - N2603 W00211 TOP FL380 MOV NE INTSF=



MET'MAP, la Météo Aéronautique d'un coup d'oeil ! - Copyright ORBIFLY Décembre 2007 - Disclaimer

ORBIFLY MET'MAP TEAM :

Programmation & Développement : Alexandra Zaïnal
Conception & Développement : Baudouin d'Aumeries
Co-Programmation & Développement : Marc-Olivier Méhu
Soutien technique & logistique : Manuel Goepfert

Contact : metmap@orbifly.com




SOURCES & CREDITS :

   NOAA